74IL weather

Corn Alley 2 Airport
El Paso, Illinois, United States

Public forecast

Using degrees Fahrenheit for public forecast. Weather courtesy of forecast.io.

METAR (pilot weather report)

Closest report is Central Illinois Regional Airport at Bloomington-Normal, 17.3 nm (32.1 km) SSE. Retrieved 2019/06/16 21:56 UTC (33 minutes ago):

KBMI 162156Z 29007KT 10SM SCT029 26/19 A2985 RMK AO2 SLP101 T02560194

TAF (pilot weather forecast)

Closest forecast is Central Illinois Regional Airport at Bloomington-Normal, 17.3 nm (32.1 km) SSE. Retrieved 2019/06/16 18:15 UTC (4 hours ago):

TAF COR KBMI 161812Z 1618/1718 36010KT P6SM SCT015 OVC250 FM170600 05007KT P6SM BKN025 FM171000 04005KT 5SM BR BKN015 FM171600 04005KT P6SM BKN025